Time,TemperatureF,DewpointF,PressureIn,WindDirection,WindDirectionDegrees,WindSpeedMPH,WindSpeedGustMPH,Humidity,HourlyPrecipIn,Conditions,Clouds,dailyrainin,SoftwareType,DateUTC
2013-04-02 03:14:00,56.7,43.0,-100.00,SW,225,0.0,-999.0,60,-99.99,,,0.00,meteohub,2013-04-02 00:14:00,
2013-04-02 03:19:00,56.7,43.3,-100.00,SW,225,0.0,-999.0,61,-99.99,,,0.00,meteohub,2013-04-02 00:19:00,
2013-04-02 03:24:00,56.5,43.7,-100.00,SW,225,0.0,2.0,62,0.00,,,0.00,meteohub,2013-04-02 00:24:00,
2013-04-02 03:30:00,56.5,44.1,-100.00,SW,225,0.0,2.0,63,0.00,,,0.00,meteohub,2013-04-02 00:30:00,
2013-04-02 03:35:00,56.3,43.9,-100.00,SW,225,0.0,2.0,63,0.00,,,0.00,meteohub,2013-04-02 00:35:00,
2013-04-02 03:40:00,56.3,44.2,-100.00,NNE,22,1.0,2.0,64,0.00,,,0.00,meteohub,2013-04-02 00:40:00,
2013-04-02 03:45:00,56.3,44.6,-100.00,WNW,292,0.0,2.0,65,0.00,,,0.00,meteohub,2013-04-02 00:45:00,
2013-04-02 03:50:00,56.1,44.1,-100.00,SW,225,2.0,2.0,64,0.00,,,0.00,meteohub,2013-04-02 00:50:00,
2013-04-02 03:55:00,55.9,44.4,-100.00,NW,315,2.0,2.0,65,0.00,,,0.00,meteohub,2013-04-02 00:55:00,
2013-04-02 04:00:00,55.9,44.4,-100.00,NW,315,0.0,2.0,65,0.00,,,0.00,meteohub,2013-04-02 01:00:00,
2013-04-02 04:05:00,55.9,44.8,-100.00,SW,225,0.0,2.0,66,0.00,,,0.00,meteohub,2013-04-02 01:05:00,
2013-04-02 04:11:00,55.9,44.8,-100.00,SSW,202,0.0,2.0,66,0.00,,,0.00,meteohub,2013-04-02 01:11:00,
2013-04-02 04:16:00,55.9,44.8,-100.00,SW,225,0.0,3.0,66,0.00,,,0.00,meteohub,2013-04-02 01:16:00,
2013-04-02 04:21:00,55.8,44.6,-100.00,SW,225,0.0,3.0,66,0.00,,,0.00,meteohub,2013-04-02 01:21:00,
2013-04-02 04:26:00,55.8,44.6,-100.00,SW,225,0.0,2.0,66,0.00,,,0.00,meteohub,2013-04-02 01:26:00,
2013-04-02 04:31:00,55.8,45.0,-100.00,SW,225,1.0,2.0,67,0.00,,,0.00,meteohub,2013-04-02 01:31:00,
2013-04-02 04:36:00,55.8,45.0,-100.00,South,180,0.0,3.0,67,0.00,,,0.00,meteohub,2013-04-02 01:36:00,
2013-04-02 04:41:00,55.8,45.0,-100.00,SW,225,2.0,3.0,67,0.00,,,0.00,meteohub,2013-04-02 01:41:00,
2013-04-02 04:46:00,55.8,45.0,-100.00,South,180,0.0,2.0,67,0.00,,,0.00,meteohub,2013-04-02 01:46:00,
2013-04-02 04:51:00,55.8,45.3,-100.00,SW,225,0.0,2.0,68,0.00,,,0.00,meteohub,2013-04-02 01:51:00,
2013-04-02 04:57:00,55.8,45.3,-100.00,South,180,0.0,2.0,68,0.00,,,0.00,meteohub,2013-04-02 01:57:00,
2013-04-02 05:02:00,55.8,45.3,-100.00,South,180,0.0,2.0,68,0.00,,,0.00,meteohub,2013-04-02 02:02:00,
2013-04-02 05:07:00,55.8,45.7,-100.00,SW,225,0.0,1.0,69,0.00,,,0.00,meteohub,2013-04-02 02:07:00,
2013-04-02 05:12:00,55.8,45.7,-100.00,SW,225,2.0,2.0,69,0.00,,,0.00,meteohub,2013-04-02 02:12:00,
2013-04-02 05:18:00,55.8,45.7,-100.00,SW,225,0.0,2.0,69,0.00,,,0.00,meteohub,2013-04-02 02:18:00,
2013-04-02 05:23:00,55.8,45.7,-100.00,SW,225,0.0,2.0,69,0.00,,,0.00,meteohub,2013-04-02 02:23:00,
2013-04-02 05:28:00,55.6,46.0,-100.00,SW,225,1.0,2.0,70,0.00,,,0.00,meteohub,2013-04-02 02:28:00,
2013-04-02 05:33:00,55.6,46.0,-100.00,SW,225,0.0,3.0,70,0.00,,,0.00,meteohub,2013-04-02 02:33:00,
2013-04-02 05:38:00,55.6,46.0,-100.00,SW,225,0.0,3.0,70,0.00,,,0.00,meteohub,2013-04-02 02:38:00,
2013-04-02 05:44:00,55.4,45.9,-100.00,SW,225,0.0,3.0,70,0.00,,,0.00,meteohub,2013-04-02 02:44:00,
2013-04-02 05:49:00,55.4,45.9,-100.00,SW,225,0.0,1.0,70,0.00,,,0.00,meteohub,2013-04-02 02:49:00,
2013-04-02 05:54:00,55.4,46.2,-100.00,SW,225,0.0,1.0,71,0.00,,,0.00,meteohub,2013-04-02 02:54:00,
2013-04-02 05:59:00,55.2,46.0,-100.00,SW,225,0.0,1.0,71,0.00,,,0.00,meteohub,2013-04-02 02:59:00,
2013-04-02 06:04:00,55.2,46.0,-100.00,SW,225,0.0,1.0,71,0.00,,,0.00,meteohub,2013-04-02 03:04:00,
2013-04-02 06:09:00,55.2,46.0,-100.00,SW,225,0.0,2.0,71,0.00,,,0.00,meteohub,2013-04-02 03:09:00,
2013-04-02 06:14:00,55.0,45.9,-100.00,SW,225,0.0,2.0,71,0.00,,,0.00,meteohub,2013-04-02 03:14:00,
2013-04-02 06:19:00,55.0,46.2,-100.00,South,180,1.0,2.0,72,0.00,,,0.00,meteohub,2013-04-02 03:19:00,
2013-04-02 06:25:00,55.0,46.2,-100.00,NNE,22,0.0,2.0,72,0.00,,,0.00,meteohub,2013-04-02 03:25:00,
2013-04-02 06:30:00,55.0,46.6,-100.00,West,270,0.0,2.0,73,0.00,,,0.00,meteohub,2013-04-02 03:30:00,
2013-04-02 06:35:00,55.0,46.9,-100.00,SW,225,1.0,4.0,74,0.00,,,0.00,meteohub,2013-04-02 03:35:00,
2013-04-02 06:40:00,55.0,46.9,-100.00,SW,225,0.0,6.0,74,0.00,,,0.00,meteohub,2013-04-02 03:40:00,
2013-04-02 06:45:00,55.0,46.9,-100.00,SW,225,0.0,6.0,74,0.00,,,0.00,meteohub,2013-04-02 03:45:00,
2013-04-02 06:51:00,55.0,46.9,-100.00,SW,225,0.0,3.0,74,0.00,,,0.00,meteohub,2013-04-02 03:51:00,
2013-04-02 06:56:00,55.0,47.3,-100.00,SW,225,3.0,4.0,75,0.00,,,0.00,meteohub,2013-04-02 03:56:00,
2013-04-02 07:00:00,55.0,47.3,-100.00,SW,225,0.0,4.0,75,0.00,,,0.00,meteohub,2013-04-02 04:00:00,
2013-04-02 07:02:00,55.0,47.3,-100.00,SW,225,0.0,4.0,75,0.00,,,0.00,meteohub,2013-04-02 04:02:00,
2013-04-02 07:07:00,55.2,47.5,-100.00,South,180,0.0,4.0,75,0.00,,,0.00,meteohub,2013-04-02 04:07:00,
2013-04-02 07:12:00,55.2,47.1,-100.00,West,270,0.0,3.0,74,0.00,,,0.00,meteohub,2013-04-02 04:12:00,
2013-04-02 07:17:00,55.2,47.1,-100.00,SW,225,0.0,3.0,74,0.00,,,0.00,meteohub,2013-04-02 04:17:00,
2013-04-02 07:22:00,55.2,47.1,-100.00,SW,225,2.0,3.0,74,0.00,,,0.00,meteohub,2013-04-02 04:22:00,
2013-04-02 07:27:00,55.2,47.1,-100.00,South,180,2.0,3.0,74,0.00,,,0.00,meteohub,2013-04-02 04:27:00,
2013-04-02 07:33:00,55.2,47.1,-100.00,SW,225,0.0,3.0,74,0.00,,,0.00,meteohub,2013-04-02 04:33:00,
2013-04-02 07:38:00,55.2,47.1,-100.00,SE,135,0.0,3.0,74,0.00,,,0.00,meteohub,2013-04-02 04:38:00,
2013-04-02 07:43:00,55.2,47.1,-100.00,South,180,1.0,3.0,74,0.00,,,0.00,meteohub,2013-04-02 04:43:00,
2013-04-02 07:48:00,55.2,47.1,-100.00,West,270,0.0,3.0,74,0.00,,,0.00,meteohub,2013-04-02 04:48:00,
2013-04-02 07:53:00,55.4,47.3,-100.00,SSW,202,2.0,3.0,74,0.00,,,0.00,meteohub,2013-04-02 04:53:00,
2013-04-02 07:58:00,55.4,47.3,-100.00,South,180,3.0,3.0,74,0.00,,,0.00,meteohub,2013-04-02 04:58:00,
2013-04-02 08:03:00,55.6,47.5,-100.00,South,180,2.0,6.0,74,0.00,,,0.00,meteohub,2013-04-02 05:03:00,
2013-04-02 08:09:00,55.8,47.7,-100.00,South,180,3.0,6.0,74,0.00,,,0.00,meteohub,2013-04-02 05:09:00,
2013-04-02 08:14:00,55.9,47.5,-100.00,SW,225,2.0,4.0,73,0.00,,,0.00,meteohub,2013-04-02 05:14:00,
2013-04-02 08:19:00,55.9,47.5,-100.00,NE,45,2.0,4.0,73,0.00,,,0.00,meteohub,2013-04-02 05:19:00,
2013-04-02 08:24:00,56.1,47.7,-100.00,SSW,202,3.0,4.0,73,0.00,,,0.00,meteohub,2013-04-02 05:24:00,
2013-04-02 08:30:00,56.3,47.8,-100.00,SW,225,3.0,6.0,73,0.00,,,0.00,meteohub,2013-04-02 05:30:00,
2013-04-02 08:35:00,56.3,47.8,-100.00,SSW,202,3.0,6.0,73,0.00,,,0.00,meteohub,2013-04-02 05:35:00,
2013-04-02 08:40:00,56.5,48.0,-100.00,SW,225,4.0,6.0,73,0.00,,,0.00,meteohub,2013-04-02 05:40:00,
2013-04-02 08:45:00,56.5,48.0,-100.00,SSW,202,4.0,5.0,73,0.00,,,0.00,meteohub,2013-04-02 05:45:00,
2013-04-02 08:50:00,57.0,48.4,-100.00,South,180,2.0,5.0,73,0.00,,,0.00,meteohub,2013-04-02 05:50:00,
2013-04-02 08:55:00,57.9,49.3,-100.00,SW,225,1.0,4.0,73,0.00,,,0.00,meteohub,2013-04-02 05:55:00,
2013-04-02 09:00:00,58.8,49.8,-100.00,NE,45,3.0,6.0,72,0.00,,,0.00,meteohub,2013-04-02 06:00:00,